Etusivu
METAR-TAF:

METAR-TAF

Lentoasemat :

Buochs, Sveitsi

Leveyspiiri: 46-58-28N, Pituuspiiri: 8-23-49E, korkeus merenpinnasta: 449 m

Tämänhetkinen sää

Tämä raportti tehtiin 44 minuuttia sitten, kello 14.50 UTC
Tuuli 3 kn idästä, vaihdellen koillisen ja etelän/kaakon välillä
Lämpötila 11°C
Kosteus 43%
Ilmanpaine 1029 hPa
Näkyvyys 10 km tai enemmän
ei pilviä alle 1500 m:ssä eikä cumulonimbus-pilviä

METAR: LSZC 211450Z 09003KT 040V160 CAVOK 11/M01 Q1029

Aika: 16:34 (15:34 UTC)

Sääennuste

Tämä raportti tehtiin 1 tunti ja 9 minuuttia sitten, kello 14.25 UTC
Ennuste voimassa 21. päivästä klo 15 UTC - 21. päivään klo 24 UTC
Tuuli 3 kn eri suunnista
Näkyvyys 10 km tai enemmän
ei pilviä alle 1500 m:ssä eikä cumulonimbus-pilviä

TAF: LSZC 211425Z 2115/2124 VRB03KT CAVOK

Säähavainnot ja -ennusteet yli 4000 lentoasemalta (METAR- ja TAF-raportit).

Käytössä olevat sääasemat on merkitty karttaan keltaisilla ja punaisilla pisteillä.

Aseta hiiri pisteen päälle nähdäksesi sääaseman nimen.

Klikkaa sitten nähdäksesi säähavainnot ja -ennusteet.

Kartan vaihtaminen: klikkaa mustalla rastilla varustettuja vihreitä pisteitä, niin voit zoomata sisään; viivalla varustettua vihreää pistettä, niin voit zoomata ulos tai vihreitä nuolia, niin pääset viereisille kartoille.


METAR-TAF: